Time;durP1;ratioP1;P1;durP2;ratioP2;P2;SDS_P1;SDS_P2;PMS_P1;PMS_P2;Temp;Humidity;BMP_temperature;BMP_pressure;BME280_temperature;BME280_humidity;BME280_pressure;Samples;Min_cycle;Max_cycle;Signal;HPM_P1;HPM_P2
2020/12/26 00:02:21;;;;;;;0.60;0.47;;;6.80;99.90;;;;;;5089763;28;20052;-59
2020/12/26 00:05:25;;;;;;;10.30;3.92;;;6.80;99.90;;;;;;5090651;28;20035;-54
2020/12/26 00:08:32;;;;;;;1.58;0.20;;;6.80;99.90;;;;;;5089847;28;20047;-56
2020/12/26 00:11:36;;;;;;;4.57;1.88;;;6.80;99.90;;;;;;5089831;28;20498;-58
2020/12/26 00:14:40;;;;;;;1.42;0.82;;;6.90;99.90;;;;;;5090202;28;20059;-58
2020/12/26 00:17:44;;;;;;;1.38;0.40;;;6.90;99.90;;;;;;5089405;28;20036;-55
2020/12/26 00:20:48;;;;;;;6.45;1.70;;;7.10;99.90;;;;;;5078335;28;20044;-58
2020/12/26 00:23:52;;;;;;;8.10;2.00;;;6.90;99.90;;;;;;5090042;28;20498;-56
2020/12/26 00:26:57;;;;;;;10.40;2.10;;;6.70;99.90;;;;;;5089852;28;20032;-57
2020/12/26 00:30:01;;;;;;;3.53;1.65;;;6.60;99.90;;;;;;5089649;28;20043;-54
2020/12/26 00:33:05;;;;;;;1.65;0.50;;;6.70;99.90;;;;;;5089910;28;20044;-58
2020/12/26 00:36:09;;;;;;;3.30;0.80;;;6.80;99.90;;;;;;5090126;28;20036;-54
2020/12/26 00:39:13;;;;;;;5.32;1.95;;;7.00;99.90;;;;;;5089320;28;20048;-57
2020/12/26 00:42:17;;;;;;;1.92;0.80;;;6.80;99.90;;;;;;5089840;28;20044;-57
2020/12/26 00:45:22;;;;;;;1.33;0.80;;;6.70;99.90;;;;;;5077678;28;20039;-55
2020/12/26 00:48:26;;;;;;;1.50;0.70;;;6.70;99.90;;;;;;5077133;28;20036;-57
2020/12/26 00:51:31;;;;;;;2.20;0.52;;;6.70;99.90;;;;;;5089622;28;20039;-55
2020/12/26 00:54:35;;;;;;;1.48;0.65;;;6.60;99.90;;;;;;5076988;28;20040;-56
2020/12/26 00:57:42;;;;;;;2.25;1.00;;;6.60;99.90;;;;;;5076843;28;20031;-53
2020/12/26 01:00:46;;;;;;;0.50;0.40;;;6.60;99.90;;;;;;5076577;28;20040;-58
2020/12/26 01:04:11;;;;;;;0.88;0.43;;;6.50;99.90;;;;;;5076461;28;20040;-58
2020/12/26 01:07:15;;;;;;;1.60;0.75;;;6.60;99.90;;;;;;5089739;28;20043;-55
2020/12/26 01:10:19;;;;;;;6.53;1.63;;;6.50;99.90;;;;;;5089225;28;20027;-54
2020/12/26 01:13:24;;;;;;;13.63;4.40;;;6.40;99.90;;;;;;5089204;28;20040;-57
2020/12/26 01:16:28;;;;;;;7.70;1.95;;;6.10;99.90;;;;;;5089407;28;20047;-54
2020/12/26 01:19:32;;;;;;;10.80;2.53;;;5.70;99.90;;;;;;5088821;28;20067;-54
2020/12/26 01:22:43;;;;;;;8.83;2.40;;;5.70;99.90;;;;;;5089499;28;20047;-54
2020/12/26 01:25:48;;;;;;;18.17;7.60;;;5.70;99.90;;;;;;5076500;28;20262;-54
2020/12/26 01:28:52;;;;;;;12.15;3.70;;;5.80;99.90;;;;;;5088674;28;20035;-57
2020/12/26 01:31:56;;;;;;;9.90;2.25;;;5.90;99.90;;;;;;5088532;28;20035;-56
2020/12/26 01:35:01;;;;;;;6.68;2.13;;;5.90;99.90;;;;;;5089247;28;20067;-56
2020/12/26 01:38:05;;;;;;;13.23;2.67;;;6.00;99.90;;;;;;5075316;28;20035;-57
2020/12/26 01:41:09;;;;;;;8.40;2.67;;;5.90;99.90;;;;;;5087822;28;20045;-56
2020/12/26 01:44:12;;;;;;;8.77;2.42;;;5.90;99.90;;;;;;5089041;28;20371;-59
2020/12/26 01:47:17;;;;;;;4.72;2.08;;;5.80;99.90;;;;;;5080035;28;20036;-58
2020/12/26 01:50:22;;;;;;;16.30;2.15;;;5.70;99.90;;;;;;5088351;28;20399;-57
2020/12/26 01:53:26;;;;;;;5.05;2.33;;;5.80;99.90;;;;;;5082150;28;20141;-57
2020/12/26 01:56:31;;;;;;;12.07;2.85;;;5.90;99.90;;;;;;5084654;28;20573;-58
2020/12/26 01:59:35;;;;;;;10.90;2.88;;;5.90;99.90;;;;;;5088609;28;20051;-55
2020/12/26 02:02:41;;;;;;;5.03;1.85;;;5.90;99.90;;;;;;5088740;28;20397;-55
2020/12/26 02:05:45;;;;;;;7.45;2.03;;;5.80;99.90;;;;;;5089220;28;20516;-54
2020/12/26 02:08:49;;;;;;;4.88;1.95;;;5.80;99.90;;;;;;5076430;28;20040;-54
2020/12/26 02:11:53;;;;;;;7.65;2.22;;;5.90;99.90;;;;;;5088026;28;20028;-54
2020/12/26 02:14:57;;;;;;;6.47;2.13;;;5.90;99.90;;;;;;5090014;28;20035;-55
2020/12/26 02:18:01;;;;;;;6.03;1.90;;;5.90;99.90;;;;;;5092359;28;20036;-55
2020/12/26 02:21:05;;;;;;;9.07;2.58;;;6.00;99.90;;;;;;5092145;28;20028;-55
2020/12/26 02:24:10;;;;;;;12.25;3.05;;;6.00;99.90;;;;;;5092311;28;20048;-57
2020/12/26 02:27:13;;;;;;;17.02;3.40;;;5.60;99.90;;;;;;5092087;28;20047;-53
2020/12/26 02:30:17;;;;;;;13.57;2.53;;;5.60;99.90;;;;;;5091455;28;20615;-57
2020/12/26 02:33:22;;;;;;;9.85;2.65;;;5.70;99.90;;;;;;5091896;28;20245;-55
2020/12/26 02:36:27;;;;;;;13.90;3.88;;;5.70;99.90;;;;;;5092158;28;20043;-56
2020/12/26 02:39:32;;;;;;;8.95;2.50;;;5.70;99.90;;;;;;5091759;28;20051;-57
2020/12/26 02:42:36;;;;;;;11.70;2.08;;;5.60;99.90;;;;;;5091805;28;20040;-57
2020/12/26 02:45:39;;;;;;;12.52;3.03;;;5.70;99.90;;;;;;5092137;28;20043;-56
2020/12/26 02:48:44;;;;;;;8.30;2.38;;;5.70;99.90;;;;;;5091660;28;20035;-57
2020/12/26 02:51:48;;;;;;;9.32;3.90;;;5.50;99.90;;;;;;5091741;28;20048;-54
2020/12/26 02:54:52;;;;;;;9.90;3.00;;;5.20;99.90;;;;;;5091904;28;20402;-56
2020/12/26 02:57:56;;;;;;;11.63;3.45;;;5.20;99.90;;;;;;5091758;28;20183;-55
2020/12/26 03:01:00;;;;;;;8.85;2.70;;;5.30;99.90;;;;;;5080858;28;20043;-57
2020/12/26 03:04:04;;;;;;;10.68;2.80;;;5.20;99.90;;;;;;5090569;28;20036;-57
2020/12/26 03:07:08;;;;;;;8.75;3.10;;;5.30;99.90;;;;;;5080323;28;20043;-54
2020/12/26 03:10:12;;;;;;;9.15;2.30;;;5.30;99.90;;;;;;5083495;28;20036;-56
2020/12/26 03:13:16;;;;;;;9.52;2.85;;;5.40;99.90;;;;;;5097387;28;20415;-54
2020/12/26 03:16:20;;;;;;;6.38;2.55;;;5.40;99.90;;;;;;5097213;28;20052;-57
2020/12/26 03:19:24;;;;;;;9.20;3.10;;;5.40;99.90;;;;;;5098859;28;20498;-58
2020/12/26 03:22:28;;;;;;;8.45;2.25;;;5.30;99.90;;;;;;5100718;28;20058;-53
2020/12/26 03:25:33;;;;;;;6.90;2.63;;;5.30;99.90;;;;;;5084306;28;20039;-56
2020/12/26 03:28:37;;;;;;;9.48;2.80;;;5.40;99.90;;;;;;5097104;28;20382;-54
2020/12/26 03:31:41;;;;;;;10.07;2.38;;;5.40;99.90;;;;;;5096304;28;20032;-54
2020/12/26 03:34:45;;;;;;;10.10;2.35;;;5.50;99.90;;;;;;5098789;28;20051;-55
2020/12/26 03:37:49;;;;;;;5.18;2.17;;;5.50;99.90;;;;;;5090392;28;20046;-55
2020/12/26 03:40:53;;;;;;;7.15;2.58;;;5.50;99.90;;;;;;5084101;28;20039;-56
2020/12/26 03:43:57;;;;;;;7.57;2.65;;;5.40;99.90;;;;;;5096946;28;20351;-57
2020/12/26 03:47:06;;;;;;;7.78;2.63;;;5.30;99.90;;;;;;5096542;28;20043;-56
2020/12/26 03:50:10;;;;;;;9.25;2.30;;;5.30;99.90;;;;;;5096852;28;20490;-56
2020/12/26 03:53:14;;;;;;;6.32;2.10;;;5.20;99.90;;;;;;5101511;28;20048;-57
2020/12/26 03:56:19;;;;;;;6.43;2.40;;;5.30;99.90;;;;;;5086291;28;20044;-58
2020/12/26 03:59:24;;;;;;;6.60;2.22;;;5.30;99.90;;;;;;5092433;28;20044;-57
2020/12/26 04:02:28;;;;;;;9.35;3.20;;;5.30;99.90;;;;;;5090016;28;20032;-57
2020/12/26 04:05:32;;;;;;;13.50;4.47;;;5.30;99.90;;;;;;5091318;28;20044;-57
2020/12/26 04:08:36;;;;;;;10.88;4.70;;;5.30;99.90;;;;;;5090297;28;20114;-57
2020/12/26 04:11:42;;;;;;;16.52;7.60;;;5.40;99.90;;;;;;5075741;28;20043;-54
2020/12/26 04:14:46;;;;;;;15.25;4.72;;;5.40;99.90;;;;;;5090406;28;20043;-55
2020/12/26 04:17:51;;;;;;;12.50;5.30;;;5.50;99.90;;;;;;5090220;28;20161;-58
2020/12/26 04:20:55;;;;;;;8.93;4.35;;;5.60;99.90;;;;;;5089857;28;20421;-57
2020/12/26 04:23:59;;;;;;;11.95;4.60;;;5.50;99.90;;;;;;5090619;28;20032;-55
2020/12/26 04:27:03;;;;;;;10.95;4.30;;;5.60;99.90;;;;;;5090206;28;20055;-57
2020/12/26 04:30:07;;;;;;;14.05;6.03;;;5.40;99.90;;;;;;5089849;28;20043;-57
2020/12/26 04:33:11;;;;;;;13.18;5.28;;;5.00;99.90;;;;;;5090072;28;20608;-54
2020/12/26 04:36:15;;;;;;;11.00;4.13;;;4.70;99.90;;;;;;5090348;28;20047;-55
2020/12/26 04:39:19;;;;;;;26.90;6.85;;;4.70;99.90;;;;;;5089389;28;20047;-55
2020/12/26 04:42:24;;;;;;;8.45;3.25;;;4.80;99.90;;;;;;5076476;28;20047;-57
2020/12/26 04:45:29;;;;;;;7.72;2.28;;;4.90;99.90;;;;;;5089321;28;20028;-57
2020/12/26 04:48:35;;;;;;;5.65;2.33;;;5.00;99.90;;;;;;5089935;28;20036;-58
2020/12/26 04:51:40;;;;;;;3.28;2.00;;;5.00;99.90;;;;;;5089468;28;20048;-54
2020/12/26 04:54:49;;;;;;;6.05;3.13;;;5.10;99.90;;;;;;5090220;28;20048;-56
2020/12/26 04:58:03;;;;;;;3.90;1.95;;;5.10;99.90;;;;;;5090057;28;20040;-56
2020/12/26 05:01:09;;;;;;;3.78;1.58;;;5.10;99.90;;;;;;5086203;28;20391;-56
2020/12/26 05:04:12;;;;;;;4.15;1.60;;;5.10;99.90;;;;;;5089933;28;20044;-58
2020/12/26 05:07:16;;;;;;;8.38;2.75;;;5.00;99.90;;;;;;5089984;28;20490;-57
2020/12/26 05:10:20;;;;;;;8.07;2.35;;;5.00;99.90;;;;;;5089686;28;20044;-56
2020/12/26 05:13:25;;;;;;;4.60;1.95;;;5.00;99.90;;;;;;5089934;28;20039;-56
2020/12/26 05:16:29;;;;;;;5.43;2.47;;;5.00;99.90;;;;;;5089811;28;20032;-55
2020/12/26 05:19:33;;;;;;;3.35;2.03;;;5.00;99.90;;;;;;5089816;28;20387;-56
2020/12/26 05:22:37;;;;;;;5.90;2.25;;;5.00;99.90;;;;;;5089354;28;20040;-57
2020/12/26 05:25:47;;;;;;;9.65;2.35;;;5.10;99.90;;;;;;5089803;28;20040;-58
2020/12/26 05:28:59;;;;;;;7.18;1.83;;;5.20;99.90;;;;;;5076417;28;20032;-57
2020/12/26 05:32:04;;;;;;;5.38;1.88;;;5.20;99.90;;;;;;5088043;28;20028;-55
2020/12/26 05:35:08;;;;;;;5.45;1.70;;;5.30;99.90;;;;;;5089267;28;20563;-57
2020/12/26 05:38:21;;;;;;;5.60;1.55;;;5.40;99.90;;;;;;5088616;28;20036;-57
2020/12/26 05:41:29;;;;;;;2.55;1.20;;;5.40;99.90;;;;;;5088638;28;20040;-56
2020/12/26 05:44:37;;;;;;;3.65;1.10;;;5.50;99.90;;;;;;5089370;28;20036;-54
2020/12/26 05:47:41;;;;;;;2.78;0.75;;;5.50;99.90;;;;;;5088985;28;20036;-56
2020/12/26 05:50:46;;;;;;;3.03;0.70;;;5.60;99.90;;;;;;5091638;28;20044;-53
2020/12/26 05:53:55;;;;;;;0.70;0.45;;;5.60;99.90;;;;;;5093115;28;20040;-57
2020/12/26 05:57:13;;;;;;;0.88;0.57;;;5.60;99.90;;;;;;5092823;28;20036;-55
2020/12/26 06:00:30;;;;;;;1.08;0.47;;;5.70;99.90;;;;;;5092820;28;20044;-53
2020/12/26 06:03:34;;;;;;;0.88;0.63;;;5.80;99.90;;;;;;5072287;28;20037;-54
2020/12/26 06:06:38;;;;;;;1.42;0.85;;;5.90;99.90;;;;;;5079597;28;20404;-56
2020/12/26 06:09:46;;;;;;;3.45;1.08;;;5.80;99.90;;;;;;5092878;28;20383;-57
2020/12/26 06:12:51;;;;;;;0.63;0.40;;;5.70;99.90;;;;;;5091868;28;20036;-56
2020/12/26 06:16:32;;;;;;;0.20;0.20;;;5.60;99.90;;;;;;5092697;28;20032;-55
2020/12/26 06:19:42;;;;;;;0.20;0.20;;;5.50;99.90;;;;;;5031384;28;20033;-57
2020/12/26 06:22:52;;;;;;;0.90;0.30;;;5.60;99.90;;;;;;5071860;28;20033;-54
2020/12/26 06:25:56;;;;;;;2.63;0.45;;;5.70;99.90;;;;;;5083977;28;20036;-56
2020/12/26 06:29:03;;;;;;;1.67;0.30;;;5.60;99.90;;;;;;5092557;28;20040;-54
2020/12/26 06:32:08;;;;;;;0.28;0.28;;;5.40;99.90;;;;;;5077695;28;20032;-58
2020/12/26 06:35:13;;;;;;;5.97;0.50;;;5.30;99.90;;;;;;5088505;28;20498;-59
2020/12/26 06:38:23;;;;;;;0.35;0.30;;;5.20;99.90;;;;;;5100714;28;20069;-55
2020/12/26 06:41:27;;;;;;;0.20;0.20;;;5.00;99.90;;;;;;5100216;28;20031;-56
2020/12/26 06:44:35;;;;;;;0.32;0.20;;;4.90;99.90;;;;;;5098454;28;20036;-56
2020/12/26 06:47:40;;;;;;;0.28;0.20;;;4.80;99.90;;;;;;5096412;28;20031;-55
2020/12/26 06:50:44;;;;;;;0.30;0.20;;;4.80;99.90;;;;;;5104641;28;20036;-58
2020/12/26 06:53:48;;;;;;;0.15;0.15;;;4.70;99.90;;;;;;5104269;28;20043;-55
2020/12/26 06:56:52;;;;;;;0.45;0.35;;;4.60;99.90;;;;;;5099907;28;20470;-58
2020/12/26 06:59:56;;;;;;;0.70;0.30;;;4.60;99.90;;;;;;5079649;28;20489;-59
2020/12/26 07:03:28;;;;;;;0.35;0.30;;;4.60;99.90;;;;;;5093291;28;20383;-58
2020/12/26 07:06:43;;;;;;;0.10;0.10;;;4.70;99.90;;;;;;5105064;28;20043;-58
2020/12/26 07:09:47;;;;;;;2.08;0.20;;;4.70;99.90;;;;;;5092891;28;20044;-58
2020/12/26 07:12:52;;;;;;;10.18;0.75;;;4.70;99.90;;;;;;5086548;28;20036;-54
2020/12/26 07:15:56;;;;;;;0.20;0.20;;;4.80;99.90;;;;;;5101867;28;20034;-56
2020/12/26 07:19:19;;;;;;;0.20;0.20;;;4.70;99.90;;;;;;5100598;28;20533;-55
2020/12/26 07:22:29;;;;;;;0.22;0.22;;;4.80;99.90;;;;;;5094606;28;20044;-56
2020/12/26 07:25:33;;;;;;;0.25;0.25;;;4.70;99.90;;;;;;5081148;28;20501;-56
2020/12/26 07:28:40;;;;;;;0.50;0.25;;;4.70;99.90;;;;;;5082146;28;20036;-57
2020/12/26 07:31:48;;;;;;;0.22;0.20;;;4.80;99.90;;;;;;5092011;28;20032;-58
2020/12/26 07:34:52;;;;;;;0.32;0.20;;;4.80;99.90;;;;;;5092893;28;20521;-56
2020/12/26 07:38:08;;;;;;;0.20;0.20;;;4.80;99.90;;;;;;5095393;28;20036;-56
2020/12/26 07:41:12;;;;;;;0.40;0.40;;;4.80;99.90;;;;;;5097050;28;20378;-58
2020/12/26 07:44:18;;;;;;;0.20;0.20;;;4.90;99.90;;;;;;5089882;28;20032;-57
2020/12/26 07:47:23;;;;;;;0.28;0.28;;;4.90;99.90;;;;;;5092343;28;20032;-53
2020/12/26 07:50:36;;;;;;;0.20;0.20;;;4.90;99.90;;;;;;5104555;28;20382;-58
2020/12/26 07:53:40;;;;;;;0.38;0.30;;;5.00;99.90;;;;;;5094403;28;20040;-57
2020/12/26 07:56:45;;;;;;;0.30;0.30;;;5.00;99.90;;;;;;5090780;28;20044;-54
2020/12/26 07:59:49;;;;;;;0.28;0.28;;;5.00;99.90;;;;;;5086146;28;20040;-58
2020/12/26 08:02:54;;;;;;;0.60;0.40;;;5.00;99.90;;;;;;5102625;28;20035;-55
2020/12/26 08:05:59;;;;;;;0.10;0.10;;;5.10;99.90;;;;;;5099210;28;20035;-55
2020/12/26 08:09:06;;;;;;;2.40;0.30;;;5.10;99.90;;;;;;5098352;28;20036;-55
2020/12/26 08:12:10;;;;;;;0.35;0.30;;;5.10;99.90;;;;;;5080029;28;20039;-52
2020/12/26 08:15:19;;;;;;;1.25;0.32;;;5.20;99.90;;;;;;5090120;28;20036;-56
2020/12/26 08:18:24;;;;;;;1.48;0.30;;;5.20;99.90;;;;;;5086693;28;20032;-57
2020/12/26 08:21:29;;;;;;;0.55;0.30;;;5.20;99.90;;;;;;5087122;28;20044;-54
2020/12/26 08:24:34;;;;;;;0.40;0.30;;;5.30;99.90;;;;;;5087730;28;20450;-56
2020/12/26 08:27:41;;;;;;;0.38;0.30;;;5.30;99.90;;;;;;5091045;28;20371;-55
2020/12/26 08:30:51;;;;;;;0.32;0.28;;;5.30;99.90;;;;;;5099087;28;20044;-55
2020/12/26 08:34:12;;;;;;;0.30;0.30;;;5.40;99.90;;;;;;5101303;28;20035;-54
2020/12/26 08:37:33;;;;;;;0.20;0.20;;;5.60;99.90;;;;;;5087366;28;20040;-55
2020/12/26 08:40:39;;;;;;;0.30;0.30;;;5.90;99.90;;;;;;5088700;28;20047;-57
2020/12/26 08:43:44;;;;;;;0.65;0.30;;;5.90;99.90;;;;;;5089344;28;20032;-58
2020/12/26 08:46:49;;;;;;;1.15;0.82;;;6.00;99.90;;;;;;5089223;28;20039;-55
2020/12/26 08:49:52;;;;;;;0.63;0.40;;;6.10;99.90;;;;;;5094139;28;20657;-55
2020/12/26 08:53:06;;;;;;;1.35;0.88;;;6.00;99.90;;;;;;5095597;28;20032;-54
2020/12/26 08:56:11;;;;;;;0.68;0.47;;;6.00;99.90;;;;;;5078098;28;20052;-58
2020/12/26 08:59:29;;;;;;;0.68;0.63;;;6.10;99.90;;;;;;5088380;28;20036;-58
2020/12/26 09:02:33;;;;;;;0.65;0.50;;;6.20;99.90;;;;;;5086694;28;20059;-54
2020/12/26 09:05:45;;;;;;;2.67;0.70;;;6.30;99.90;;;;;;5088579;28;20048;-54
2020/12/26 09:08:49;;;;;;;1.10;0.73;;;6.30;99.90;;;;;;5077250;28;20040;-57
2020/12/26 09:12:04;;;;;;;5.25;0.50;;;6.30;99.90;;;;;;5099778;28;20270;-54
2020/12/26 09:15:08;;;;;;;2.65;1.52;;;6.50;99.90;;;;;;5087715;28;20036;-54
2020/12/26 09:18:21;;;;;;;2.22;1.17;;;6.50;99.90;;;;;;5090766;28;20046;-55
2020/12/26 09:21:29;;;;;;;2.10;0.77;;;6.70;99.90;;;;;;5098199;28;20044;-53
2020/12/26 09:24:33;;;;;;;2.63;0.75;;;6.80;99.90;;;;;;5100274;28;20043;-54
2020/12/26 09:27:37;;;;;;;1.17;0.55;;;6.50;99.90;;;;;;5103903;28;20032;-58
2020/12/26 09:30:41;;;;;;;2.28;1.10;;;6.50;99.90;;;;;;5102907;28;20036;-56
2020/12/26 09:33:46;;;;;;;2.03;1.20;;;6.70;99.90;;;;;;5091358;28;20040;-55
2020/12/26 09:37:08;;;;;;;1.10;0.70;;;7.00;99.90;;;;;;5100777;28;20036;-58
2020/12/26 09:40:12;;;;;;;0.80;0.63;;;7.20;99.90;;;;;;5108218;28;20048;-56
2020/12/26 09:43:16;;;;;;;1.17;0.70;;;7.30;99.90;;;;;;5103803;28;20036;-57
2020/12/26 09:46:22;;;;;;;1.88;0.90;;;7.30;99.90;;;;;;5102178;28;20048;-58
2020/12/26 09:49:26;;;;;;;1.02;0.80;;;7.50;99.90;;;;;;5092937;28;20481;-55
2020/12/26 09:52:31;;;;;;;0.77;0.50;;;7.50;99.90;;;;;;5084384;28;20040;-56
2020/12/26 09:55:35;;;;;;;2.88;1.30;;;7.40;99.90;;;;;;5076090;28;20039;-55
2020/12/26 09:58:42;;;;;;;7.38;3.75;;;7.30;99.90;;;;;;5102413;28;20032;-54
2020/12/26 10:01:48;;;;;;;3.72;1.40;;;7.20;99.90;;;;;;5094820;28;20036;-55
2020/12/26 10:04:52;;;;;;;0.85;0.70;;;7.10;99.90;;;;;;5091919;28;20032;-58
2020/12/26 10:07:56;;;;;;;3.38;0.70;;;7.00;99.90;;;;;;5093722;28;20367;-55
2020/12/26 10:11:00;;;;;;;4.20;0.93;;;7.00;99.90;;;;;;5095369;28;20662;-55
2020/12/26 10:14:04;;;;;;;7.22;0.93;;;6.90;99.90;;;;;;5101050;28;20032;-54
2020/12/26 10:17:08;;;;;;;1.65;0.60;;;6.90;99.90;;;;;;5103506;28;20039;-54
2020/12/26 10:20:12;;;;;;;1.83;0.68;;;6.90;99.90;;;;;;5097460;28;20489;-56
2020/12/26 10:23:16;;;;;;;1.25;0.60;;;7.00;99.90;;;;;;5093856;28;20035;-53
2020/12/26 10:26:20;;;;;;;1.50;0.70;;;6.90;99.90;;;;;;5098310;28;20031;-54
2020/12/26 10:29:24;;;;;;;2.30;0.60;;;7.00;99.90;;;;;;5099058;28;20048;-57
2020/12/26 10:32:31;;;;;;;2.10;1.17;;;6.90;99.90;;;;;;5085980;28;20040;-58
2020/12/26 10:35:35;;;;;;;3.70;0.80;;;6.90;99.90;;;;;;5100325;28;20402;-58
2020/12/26 10:38:39;;;;;;;1.60;0.57;;;7.00;99.90;;;;;;5089298;28;20486;-53
2020/12/26 10:41:43;;;;;;;2.20;0.55;;;7.00;99.90;;;;;;5097387;28;20047;-55
2020/12/26 10:44:48;;;;;;;2.78;0.52;;;7.00;99.90;;;;;;5075075;28;20040;-54
2020/12/26 10:47:52;;;;;;;1.80;0.90;;;7.00;99.90;;;;;;5084924;28;20025;-56
2020/12/26 10:50:56;;;;;;;1.02;0.63;;;7.10;99.90;;;;;;5086005;28;20489;-55
2020/12/26 10:54:00;;;;;;;0.88;0.57;;;7.10;99.90;;;;;;5098308;28;20031;-58
2020/12/26 10:57:06;;;;;;;3.80;0.98;;;7.20;99.90;;;;;;5096796;28;20042;-57
2020/12/26 11:00:11;;;;;;;3.45;0.85;;;7.20;99.90;;;;;;5104658;28;20032;-54
2020/12/26 11:03:15;;;;;;;1.35;0.77;;;7.30;99.90;;;;;;5087563;28;20032;-58
2020/12/26 11:06:20;;;;;;;3.42;0.80;;;7.40;99.90;;;;;;5083029;28;20032;-54
2020/12/26 11:09:25;;;;;;;1.98;1.00;;;7.40;99.90;;;;;;5088670;28;20407;-57
2020/12/26 11:12:29;;;;;;;2.13;0.65;;;7.50;99.90;;;;;;5090107;28;20121;-57
2020/12/26 11:15:33;;;;;;;2.08;0.70;;;7.70;99.90;;;;;;5092341;28;20058;-55
2020/12/26 11:18:37;;;;;;;2.30;0.80;;;7.80;99.90;;;;;;5077655;28;20037;-58
2020/12/26 11:21:41;;;;;;;3.35;0.80;;;8.10;99.90;;;;;;5079522;28;20416;-55
2020/12/26 11:24:46;;;;;;;3.58;0.85;;;8.70;99.90;;;;;;5088864;28;20028;-57
2020/12/26 11:27:51;;;;;;;0.98;0.43;;;10.70;99.90;;;;;;5082581;28;20032;-57
2020/12/26 11:30:55;;;;;;;3.15;1.08;;;13.40;99.90;;;;;;5080288;28;20039;-56
2020/12/26 11:34:00;;;;;;;2.65;0.70;;;16.80;98.90;;;;;;5077366;28;20039;-56
2020/12/26 11:37:08;;;;;;;1.63;0.73;;;19.20;92.60;;;;;;5075254;28;20397;-59
2020/12/26 11:40:12;;;;;;;1.55;0.80;;;17.70;88.20;;;;;;5077731;28;20514;-57
2020/12/26 11:43:16;;;;;;;1.90;0.70;;;16.00;91.80;;;;;;5081287;28;20035;-57
2020/12/26 11:46:20;;;;;;;2.53;0.60;;;14.00;93.60;;;;;;5089174;28;20056;-56
2020/12/26 11:49:24;;;;;;;2.80;0.80;;;12.40;98.20;;;;;;5096023;28;20039;-57
2020/12/26 11:52:28;;;;;;;1.23;0.77;;;11.30;99.30;;;;;;5095988;28;20501;-56
2020/12/26 11:55:33;;;;;;;1.05;0.57;;;10.60;99.90;;;;;;5099047;28;20052;-56
2020/12/26 11:58:38;;;;;;;0.98;0.60;;;9.90;99.90;;;;;;5088426;28;20052;-56
2020/12/26 12:01:42;;;;;;;2.92;0.77;;;9.60;99.90;;;;;;5076983;28;20035;-55
2020/12/26 12:04:46;;;;;;;1.65;0.70;;;9.00;99.90;;;;;;5089718;28;20040;-60
2020/12/26 12:07:50;;;;;;;1.00;0.40;;;8.70;99.90;;;;;;5089040;28;20040;-54
2020/12/26 12:10:54;;;;;;;2.47;0.68;;;8.50;99.90;;;;;;5089237;28;20040;-56
2020/12/26 12:13:58;;;;;;;3.20;0.57;;;8.50;99.90;;;;;;5083055;28;20040;-56
2020/12/26 12:17:02;;;;;;;0.90;0.60;;;8.50;99.90;;;;;;5081018;28;20039;-59
2020/12/26 12:20:06;;;;;;;2.55;1.50;;;8.40;99.90;;;;;;5078693;28;20040;-55
2020/12/26 12:23:11;;;;;;;2.35;0.50;;;8.30;99.90;;;;;;5095876;28;20032;-55
2020/12/26 12:26:26;;;;;;;1.50;0.80;;;8.00;99.90;;;;;;5090869;28;20032;-52
2020/12/26 12:29:30;;;;;;;5.45;1.02;;;7.90;99.90;;;;;;5089417;28;20661;-58
2020/12/26 12:32:34;;;;;;;1.77;0.90;;;7.70;99.90;;;;;;5103592;28;20044;-56
2020/12/26 12:35:38;;;;;;;1.52;1.23;;;7.70;99.90;;;;;;5085505;28;20697;-55
2020/12/26 12:38:43;;;;;;;4.55;1.52;;;7.60;99.90;;;;;;5077200;28;20044;-58
2020/12/26 12:41:52;;;;;;;2.25;0.90;;;7.60;99.90;;;;;;5090268;28;20036;-56
2020/12/26 12:44:56;;;;;;;2.60;0.90;;;7.70;99.90;;;;;;5096492;28;20035;-58
2020/12/26 12:48:00;;;;;;;2.13;1.50;;;7.80;99.90;;;;;;5084013;28;20039;-56
2020/12/26 12:51:04;;;;;;;3.47;0.93;;;7.90;99.90;;;;;;5085809;28;20039;-57
2020/12/26 12:54:10;;;;;;;5.93;2.47;;;8.00;99.90;;;;;;5078569;28;20384;-55
2020/12/26 12:57:14;;;;;;;2.97;0.88;;;8.00;99.90;;;;;;5075068;28;20036;-58
2020/12/26 13:00:19;;;;;;;3.90;2.05;;;8.10;99.90;;;;;;5097576;28;20047;-55
2020/12/26 13:03:23;;;;;;;2.92;1.00;;;8.10;99.90;;;;;;5086457;28;20410;-56
2020/12/26 13:06:27;;;;;;;2.08;1.20;;;8.10;99.90;;;;;;5095340;28;20474;-58
2020/12/26 13:09:32;;;;;;;2.47;1.20;;;8.20;99.90;;;;;;5094340;28;20435;-58
2020/12/26 13:12:36;;;;;;;3.63;1.80;;;8.40;99.90;;;;;;5090185;28;20039;-57
2020/12/26 13:15:42;;;;;;;1.50;0.65;;;8.50;99.90;;;;;;5096992;28;20036;-56
2020/12/26 13:18:46;;;;;;;3.63;1.10;;;8.50;99.90;;;;;;5085113;28;20043;-58
2020/12/26 13:21:54;;;;;;;3.10;2.00;;;8.60;99.90;;;;;;5101235;28;20047;-58
2020/12/26 13:24:58;;;;;;;3.80;2.33;;;8.60;99.90;;;;;;5089995;28;20405;-54
2020/12/26 13:28:02;;;;;;;6.43;3.58;;;8.70;99.90;;;;;;5076112;28;20040;-58
2020/12/26 13:31:06;;;;;;;2.22;0.95;;;8.90;99.90;;;;;;5088808;28;20775;-58
2020/12/26 13:34:11;;;;;;;5.60;1.80;;;9.00;99.90;;;;;;5086717;28;20387;-56
2020/12/26 13:37:16;;;;;;;3.45;2.00;;;9.10;99.90;;;;;;5081320;28;20398;-55
2020/12/26 13:40:20;;;;;;;2.63;1.45;;;9.10;99.90;;;;;;5086517;28;20036;-58
2020/12/26 13:43:25;;;;;;;2.20;0.82;;;9.70;99.90;;;;;;5088099;28;20044;-55
2020/12/26 13:46:29;;;;;;;3.13;1.38;;;10.10;99.90;;;;;;5089116;28;20027;-59
2020/12/26 13:49:33;;;;;;;3.58;0.90;;;10.10;99.90;;;;;;5098808;28;20058;-55
2020/12/26 13:52:37;;;;;;;4.68;1.70;;;10.70;99.90;;;;;;5073473;28;20409;-57
2020/12/26 13:55:41;;;;;;;1.98;1.00;;;10.30;99.90;;;;;;5086856;28;20055;-55
2020/12/26 13:58:45;;;;;;;1.85;1.10;;;9.70;99.90;;;;;;5087765;28;20512;-57
2020/12/26 14:01:49;;;;;;;4.50;3.13;;;9.40;99.90;;;;;;5079300;28;20044;-58
2020/12/26 14:04:53;;;;;;;2.60;1.10;;;10.90;99.90;;;;;;5084891;28;20048;-58
2020/12/26 14:07:58;;;;;;;2.60;1.05;;;11.70;99.90;;;;;;5085063;28;20676;-57
2020/12/26 14:11:04;;;;;;;2.92;0.90;;;12.60;98.70;;;;;;5091173;28;20038;-57
2020/12/26 14:14:09;;;;;;;3.88;2.70;;;13.10;97.30;;;;;;5091721;28;20047;-58
2020/12/26 14:17:14;;;;;;;1.77;1.10;;;13.20;97.10;;;;;;5086400;28;20043;-56
2020/12/26 14:20:18;;;;;;;3.83;2.42;;;13.00;96.70;;;;;;5082264;28;20051;-57
2020/12/26 14:23:22;;;;;;;11.75;2.40;;;11.80;97.70;;;;;;5092670;28;20046;-59
2020/12/26 14:26:27;;;;;;;2.90;1.02;;;10.90;99.10;;;;;;5091426;28;20051;-55
2020/12/26 14:29:31;;;;;;;7.53;1.73;;;10.10;99.60;;;;;;5095430;28;20057;-55
2020/12/26 14:32:35;;;;;;;4.90;1.60;;;10.10;99.90;;;;;;5088891;28;20047;-57
2020/12/26 14:35:39;;;;;;;14.35;6.38;;;10.20;99.90;;;;;;5092804;28;20635;-58
2020/12/26 14:38:43;;;;;;;4.30;1.75;;;9.80;99.90;;;;;;5093828;28;20062;-54
2020/12/26 14:41:47;;;;;;;3.55;1.83;;;9.80;99.90;;;;;;5092771;28;20474;-58
2020/12/26 14:44:53;;;;;;;3.60;2.70;;;10.80;99.90;;;;;;5093499;28;20041;-58
2020/12/26 14:48:08;;;;;;;5.35;3.63;;;11.50;99.60;;;;;;5095568;28;20047;-58
2020/12/26 14:51:13;;;;;;;3.42;1.83;;;12.20;98.00;;;;;;5084023;28;20046;-56
2020/12/26 14:54:17;;;;;;;3.47;1.20;;;12.60;97.00;;;;;;5087795;28;20406;-56
2020/12/26 14:57:22;;;;;;;1.75;0.80;;;12.10;96.30;;;;;;5088097;28;20035;-55
2020/12/26 15:00:26;;;;;;;2.40;1.10;;;11.70;97.00;;;;;;5076741;28;20055;-57
2020/12/26 15:03:30;;;;;;;3.55;1.27;;;10.80;98.20;;;;;;5088978;28;20062;-59
2020/12/26 15:06:36;;;;;;;5.93;4.10;;;9.70;99.30;;;;;;5082338;28;20047;-57
2020/12/26 15:09:40;;;;;;;2.33;1.35;;;9.80;99.90;;;;;;5100171;28;20039;-58
2020/12/26 15:12:45;;;;;;;6.20;2.75;;;10.20;99.90;;;;;;5081659;28;20044;-59
2020/12/26 15:15:49;;;;;;;10.05;4.75;;;10.40;99.90;;;;;;5094017;28;20043;-56
2020/12/26 15:18:53;;;;;;;5.65;2.38;;;10.10;99.00;;;;;;5090656;28;20042;-54
2020/12/26 15:21:57;;;;;;;7.18;3.90;;;9.90;99.70;;;;;;5103367;28;20515;-57
2020/12/26 15:25:01;;;;;;;4.65;1.77;;;9.30;99.90;;;;;;5075791;28;20040;-59
2020/12/26 15:28:05;;;;;;;4.13;2.22;;;8.60;99.90;;;;;;5095274;28;20481;-55
2020/12/26 15:31:09;;;;;;;5.85;2.63;;;8.10;99.90;;;;;;5091993;28;20032;-58
2020/12/26 15:34:13;;;;;;;4.13;1.20;;;7.70;99.90;;;;;;5093173;28;20040;-58
2020/12/26 15:37:17;;;;;;;8.10;4.30;;;7.50;99.90;;;;;;5092006;28;20043;-58
2020/12/26 15:40:21;;;;;;;7.32;2.92;;;7.30;99.90;;;;;;5091438;28;20053;-57
2020/12/26 15:43:25;;;;;;;2.80;1.38;;;7.00;99.90;;;;;;5096313;28;20035;-56
2020/12/26 15:46:29;;;;;;;6.35;1.20;;;6.90;99.90;;;;;;5096427;28;20040;-56
2020/12/26 15:49:33;;;;;;;4.72;2.65;;;6.70;99.90;;;;;;5095479;28;20483;-59
2020/12/26 15:52:38;;;;;;;6.55;4.22;;;6.50;99.90;;;;;;5095725;28;20051;-54
2020/12/26 15:55:44;;;;;;;2.83;1.00;;;6.50;99.90;;;;;;5094971;28;20036;-58
2020/12/26 15:58:49;;;;;;;14.50;10.38;;;6.40;99.90;;;;;;5082633;28;20658;-58
2020/12/26 16:01:53;;;;;;;2.97;1.80;;;6.30;99.90;;;;;;5089613;28;20063;-56
2020/12/26 16:04:57;;;;;;;8.18;3.30;;;6.20;99.90;;;;;;5069769;28;20037;-58
2020/12/26 16:08:01;;;;;;;7.80;2.67;;;6.20;99.90;;;;;;5098460;28;20043;-55
2020/12/26 16:11:05;;;;;;;12.20;5.47;;;6.10;99.90;;;;;;5079763;28;20036;-59
2020/12/26 16:14:11;;;;;;;5.95;1.90;;;6.10;99.90;;;;;;5075580;28;20043;-59
2020/12/26 16:17:15;;;;;;;4.88;1.60;;;6.10;99.90;;;;;;5086862;28;20028;-58